createdAt,value
2022-12-25T00:00:33.143Z,15.38
2022-12-25T00:02:34.823Z,12.65
2022-12-25T00:04:36.588Z,12.10
2022-12-25T00:06:38.032Z,12.30
2022-12-25T00:08:40.637Z,11.52
2022-12-25T00:10:45.551Z,10.20
2022-12-25T00:12:47.563Z,10.07
2022-12-25T00:14:49.127Z,9.93
2022-12-25T00:16:54.983Z,10.48
2022-12-25T00:18:59.455Z,9.30
2022-12-25T00:21:06.290Z,9.55
2022-12-25T00:23:07.930Z,8.55
2022-12-25T00:25:09.820Z,8.73
2022-12-25T00:27:13.499Z,8.48
2022-12-25T00:29:15.407Z,8.63
2022-12-25T00:31:17.991Z,7.78
2022-12-25T00:33:19.789Z,8.80
2022-12-25T00:35:21.293Z,8.48
2022-12-25T00:37:22.782Z,8.77
2022-12-25T00:39:27.427Z,8.55
2022-12-25T00:41:58.003Z,8.50
2022-12-25T00:43:59.637Z,8.57
2022-12-25T00:46:02.768Z,7.43
2022-12-25T00:48:04.711Z,7.95
2022-12-25T00:50:06.754Z,7.45
2022-12-25T00:52:08.719Z,6.40
2022-12-25T00:54:10.764Z,6.20
2022-12-25T00:56:12.258Z,6.50
2022-12-25T00:58:13.856Z,6.25
2022-12-25T01:00:16.170Z,5.82
2022-12-25T01:02:23.770Z,6.07
2022-12-25T01:04:25.578Z,6.50
2022-12-25T01:06:27.169Z,6.05
2022-12-25T01:08:36.976Z,6.70
2022-12-25T01:10:38.628Z,6.25
2022-12-25T01:12:43.117Z,6.22
2022-12-25T01:14:44.775Z,5.78
2022-12-25T01:16:48.690Z,5.53
2022-12-25T01:18:53.578Z,5.35
2022-12-25T01:20:55.249Z,5.60
2022-12-25T01:22:56.831Z,5.80
2022-12-25T01:25:01.159Z,5.20
2022-12-25T01:27:02.546Z,5.43
2022-12-25T01:29:04.271Z,5.50
2022-12-25T01:31:09.722Z,5.55
2022-12-25T01:33:11.235Z,5.03
2022-12-25T01:35:13.024Z,4.88
2022-12-25T01:37:14.486Z,4.88
2022-12-25T01:39:16.011Z,4.80
2022-12-25T01:41:22.344Z,4.68
2022-12-25T01:43:31.539Z,4.30
2022-12-25T01:45:44.667Z,4.20
2022-12-25T01:47:46.427Z,3.85
2022-12-25T01:49:57.542Z,4.07
2022-12-25T01:52:13.299Z,3.95
2022-12-25T01:54:20.582Z,3.88
2022-12-25T01:56:22.634Z,3.95
2022-12-25T01:58:25.000Z,3.53
2022-12-25T02:00:26.667Z,3.60
2022-12-25T02:02:29.201Z,3.70
2022-12-25T02:04:41.318Z,3.42
2022-12-25T02:06:42.894Z,3.65
2022-12-25T02:08:45.728Z,3.60
2022-12-25T02:10:47.813Z,3.58
2022-12-25T02:12:50.120Z,3.47
2022-12-25T02:14:59.660Z,3.50
2022-12-25T02:17:17.334Z,4.10
2022-12-25T02:19:29.267Z,3.00
2022-12-25T02:21:49.431Z,4.05
2022-12-25T02:24:12.211Z,3.22
2022-12-25T02:26:22.313Z,3.90
2022-12-25T02:28:39.525Z,3.45
2022-12-25T02:30:59.884Z,3.60
2022-12-25T02:33:34.933Z,3.90
2022-12-25T02:35:37.173Z,3.65
2022-12-25T02:37:49.455Z,4.20
2022-12-25T02:40:17.732Z,4.43
2022-12-25T02:42:45.735Z,4.20
2022-12-25T02:45:09.781Z,4.15
2022-12-25T02:47:36.840Z,4.10
2022-12-25T02:49:58.217Z,4.00
2022-12-25T02:52:34.295Z,3.72
2022-12-25T02:55:03.285Z,4.00
2022-12-25T02:57:28.019Z,3.72
2022-12-25T02:59:51.950Z,3.45
2022-12-25T03:02:15.744Z,3.42
2022-12-25T03:04:40.201Z,3.58
2022-12-25T03:06:55.320Z,3.42
2022-12-25T03:09:20.157Z,4.03
2022-12-25T03:11:37.443Z,3.67
2022-12-25T03:13:43.303Z,3.08
2022-12-25T03:16:05.373Z,3.00
2022-12-25T03:18:14.069Z,2.58
2022-12-25T03:20:34.221Z,3.33
2022-12-25T03:22:54.960Z,2.90
2022-12-25T03:25:17.467Z,3.03
2022-12-25T03:27:21.793Z,2.72
2022-12-25T03:29:51.237Z,2.65
2022-12-25T03:32:06.455Z,2.78
2022-12-25T03:35:08.437Z,2.80
2022-12-25T03:37:45.378Z,3.05
2022-12-25T03:40:38.576Z,3.10
2022-12-25T03:43:04.914Z,2.95
2022-12-25T03:45:33.672Z,2.90
2022-12-25T03:47:58.482Z,2.60
2022-12-25T03:50:57.857Z,3.00
2022-12-25T03:53:21.911Z,3.03
2022-12-25T03:55:44.713Z,2.47
2022-12-25T03:58:05.009Z,3.25
2022-12-25T04:00:29.247Z,2.70
2022-12-25T04:02:49.691Z,2.70
2022-12-25T04:05:10.192Z,2.63
2022-12-25T04:07:31.113Z,3.00
2022-12-25T04:09:51.521Z,2.95
2022-12-25T04:12:11.589Z,2.97
2022-12-25T04:14:31.921Z,3.28
2022-12-25T04:16:51.906Z,3.03
2022-12-25T04:19:12.347Z,2.38
2022-12-25T04:21:32.611Z,2.90
2022-12-25T04:23:54.594Z,2.58
2022-12-25T04:26:18.137Z,2.95
2022-12-25T04:28:38.358Z,2.70
2022-12-25T04:31:10.380Z,2.67
2022-12-25T04:33:30.822Z,3.03
2022-12-25T04:35:51.138Z,3.35
2022-12-25T04:37:52.867Z,3.30
2022-12-25T04:39:54.684Z,3.63
2022-12-25T04:42:01.102Z,4.50
2022-12-25T04:44:04.119Z,4.13
2022-12-25T04:46:05.989Z,3.90
2022-12-25T04:48:07.567Z,3.72
2022-12-25T04:50:11.924Z,3.45
2022-12-25T04:52:13.489Z,2.90
2022-12-25T04:54:15.003Z,2.90
2022-12-25T04:56:17.410Z,3.05
2022-12-25T04:58:23.310Z,2.80
2022-12-25T05:00:25.081Z,3.10
2022-12-25T05:02:26.866Z,2.92
2022-12-25T05:04:31.641Z,2.70
2022-12-25T05:06:33.541Z,2.88
2022-12-25T05:08:36.168Z,2.70
2022-12-25T05:10:40.340Z,2.92
2022-12-25T05:12:42.376Z,3.05
2022-12-25T05:14:46.943Z,2.88
2022-12-25T05:16:48.514Z,2.30
2022-12-25T05:18:51.442Z,2.60
2022-12-25T05:20:56.036Z,2.58
2022-12-25T05:22:57.975Z,2.10
2022-12-25T05:25:01.572Z,2.25
2022-12-25T05:27:06.357Z,2.40
2022-12-25T05:29:07.878Z,2.58
2022-12-25T05:31:09.964Z,2.30
2022-12-25T05:33:12.934Z,2.30
2022-12-25T05:35:15.050Z,2.47
2022-12-25T05:37:16.678Z,2.60
2022-12-25T05:39:18.656Z,2.25
2022-12-25T05:41:20.589Z,2.67
2022-12-25T05:43:22.084Z,2.60
2022-12-25T05:45:23.622Z,2.30
2022-12-25T05:47:25.287Z,2.30
2022-12-25T05:49:26.791Z,2.40
2022-12-25T05:51:28.581Z,2.05
2022-12-25T05:53:30.135Z,2.53
2022-12-25T05:55:35.056Z,2.20
2022-12-25T05:57:36.681Z,2.20
2022-12-25T05:59:38.245Z,2.28
2022-12-25T06:01:40.106Z,2.10
2022-12-25T06:03:42.189Z,2.20
2022-12-25T06:05:43.754Z,2.30
2022-12-25T06:07:47.994Z,2.55
2022-12-25T06:09:49.817Z,2.08
2022-12-25T06:11:51.455Z,2.28
2022-12-25T06:13:53.542Z,2.28
2022-12-25T06:16:09.432Z,2.70
2022-12-25T06:18:11.817Z,3.33
2022-12-25T06:20:13.472Z,4.60
2022-12-25T06:22:15.277Z,5.03
2022-12-25T06:24:21.478Z,5.43
2022-12-25T06:26:23.626Z,5.95
2022-12-25T06:28:31.218Z,5.10
2022-12-25T06:30:33.586Z,5.50
2022-12-25T06:32:35.085Z,5.03
2022-12-25T06:34:36.872Z,5.22
2022-12-25T06:36:38.575Z,4.78
2022-12-25T06:38:40.670Z,4.45
2022-12-25T06:40:42.222Z,4.00
2022-12-25T06:42:44.498Z,3.40
2022-12-25T06:44:46.368Z,3.00
2022-12-25T06:46:47.993Z,2.58
2022-12-25T06:48:54.772Z,2.80
2022-12-25T06:50:56.556Z,2.35
2022-12-25T06:53:00.856Z,2.17
2022-12-25T06:55:02.547Z,2.15
2022-12-25T06:57:04.031Z,1.90
2022-12-25T06:59:08.004Z,1.98
2022-12-25T07:01:22.430Z,2.40
2022-12-25T07:03:26.919Z,2.10
2022-12-25T07:05:28.508Z,2.33
2022-12-25T07:07:30.161Z,2.88
2022-12-25T07:09:31.984Z,2.78
2022-12-25T07:11:33.635Z,3.20
2022-12-25T07:13:35.083Z,2.90
2022-12-25T07:15:37.919Z,3.00
2022-12-25T07:17:39.664Z,3.20
2022-12-25T07:19:45.132Z,3.20
2022-12-25T07:21:47.257Z,3.47
2022-12-25T07:23:52.842Z,3.10
2022-12-25T07:25:59.576Z,3.25
2022-12-25T07:28:01.157Z,3.00
2022-12-25T07:30:02.919Z,2.88
2022-12-25T07:32:05.367Z,2.80
2022-12-25T07:34:06.846Z,3.08
2022-12-25T07:36:12.565Z,2.60
2022-12-25T07:38:14.869Z,2.50
2022-12-25T07:40:16.726Z,2.60
2022-12-25T07:42:23.391Z,2.00
2022-12-25T07:44:29.020Z,2.10
2022-12-25T07:46:30.657Z,2.38
2022-12-25T07:48:32.216Z,2.80
2022-12-25T07:50:34.881Z,2.60
2022-12-25T07:52:43.080Z,2.80
2022-12-25T07:54:49.794Z,2.70
2022-12-25T07:56:52.555Z,2.75
2022-12-25T07:58:54.275Z,2.70
2022-12-25T08:01:01.958Z,2.80
2022-12-25T08:03:06.827Z,3.10
2022-12-25T08:05:09.370Z,2.97
2022-12-25T08:07:18.570Z,2.95
2022-12-25T08:09:20.031Z,3.13
2022-12-25T08:11:21.965Z,2.60
2022-12-25T08:13:24.630Z,2.63
2022-12-25T08:15:30.578Z,2.50
2022-12-25T08:17:35.251Z,2.47
2022-12-25T08:19:36.890Z,2.40
2022-12-25T08:21:38.726Z,2.20
2022-12-25T08:23:42.587Z,2.03
2022-12-25T08:25:46.439Z,2.25
2022-12-25T08:27:47.994Z,1.95
2022-12-25T08:29:53.678Z,2.25
2022-12-25T08:32:12.575Z,2.25
2022-12-25T08:34:14.255Z,3.40
2022-12-25T08:36:17.204Z,3.30
2022-12-25T08:38:18.774Z,4.32
2022-12-25T08:40:20.485Z,4.43
2022-12-25T08:42:22.211Z,4.50
2022-12-25T08:44:23.712Z,4.22
2022-12-25T08:46:25.575Z,3.97
2022-12-25T08:48:36.166Z,3.35
2022-12-25T08:50:37.718Z,3.47
2022-12-25T08:52:39.739Z,3.00
2022-12-25T08:54:42.235Z,2.70
2022-12-25T08:56:43.705Z,3.00
2022-12-25T08:58:48.139Z,2.53
2022-12-25T09:00:53.803Z,2.47
2022-12-25T09:02:56.505Z,2.58
2022-12-25T09:04:58.233Z,2.20
2022-12-25T09:06:59.921Z,2.13
2022-12-25T09:09:01.797Z,2.33
2022-12-25T09:11:08.657Z,2.20
2022-12-25T09:13:10.242Z,1.70
2022-12-25T09:15:12.208Z,1.88
2022-12-25T09:17:20.478Z,2.08
2022-12-25T09:19:22.145Z,1.88
2022-12-25T09:21:24.520Z,2.00
2022-12-25T09:23:26.374Z,2.30
2022-12-25T09:25:28.120Z,1.95
2022-12-25T09:27:29.751Z,2.00
2022-12-25T09:29:31.192Z,2.00
2022-12-25T09:31:33.018Z,1.90
2022-12-25T09:33:35.043Z,2.25
2022-12-25T09:35:36.807Z,1.95
2022-12-25T09:37:38.487Z,1.80
2022-12-25T09:39:46.128Z,1.88
2022-12-25T09:42:04.462Z,1.80
2022-12-25T09:44:31.197Z,1.73
2022-12-25T09:46:47.483Z,2.28
2022-12-25T09:49:27.687Z,1.90
2022-12-25T09:51:31.269Z,1.70
2022-12-25T09:53:41.939Z,2.28
2022-12-25T09:56:06.535Z,2.13
2022-12-25T09:58:13.272Z,2.20
2022-12-25T10:00:21.174Z,1.85
2022-12-25T10:02:36.196Z,1.80
2022-12-25T10:05:12.408Z,1.90
2022-12-25T10:07:32.409Z,2.03
2022-12-25T10:09:53.100Z,1.75
2022-12-25T10:12:09.874Z,1.90
2022-12-25T10:14:22.143Z,1.70
2022-12-25T10:16:40.331Z,2.33
2022-12-25T10:18:46.503Z,2.08
2022-12-25T10:20:56.880Z,2.10
2022-12-25T10:23:01.662Z,1.60
2022-12-25T10:25:06.931Z,2.00
2022-12-25T10:27:18.807Z,1.80
2022-12-25T10:29:23.109Z,1.98
2022-12-25T10:31:28.275Z,1.80
2022-12-25T10:33:30.298Z,1.80
2022-12-25T10:35:32.812Z,2.38
2022-12-25T10:37:34.442Z,1.90
2022-12-25T10:39:39.672Z,2.20
2022-12-25T10:42:23.673Z,2.20
2022-12-25T10:44:25.468Z,1.83
2022-12-25T10:46:29.379Z,2.13
2022-12-25T10:48:33.359Z,2.20
2022-12-25T10:50:43.544Z,1.88
2022-12-25T10:53:04.387Z,1.98
2022-12-25T10:55:13.258Z,1.77
2022-12-25T10:57:17.521Z,1.98
2022-12-25T10:59:19.222Z,1.50
2022-12-25T11:01:21.118Z,1.40
2022-12-25T11:03:26.667Z,1.90
2022-12-25T11:05:34.011Z,1.65
2022-12-25T11:07:50.887Z,1.60
2022-12-25T11:09:57.848Z,1.77
2022-12-25T11:12:02.677Z,1.48
2022-12-25T11:14:04.514Z,1.52
2022-12-25T11:16:28.513Z,1.50
2022-12-25T11:18:54.434Z,1.70
2022-12-25T11:20:59.399Z,1.42
2022-12-25T11:23:01.129Z,1.45
2022-12-25T11:25:13.457Z,1.70
2022-12-25T11:27:43.129Z,1.75
2022-12-25T11:29:57.782Z,1.52
2022-12-25T11:32:02.496Z,1.58
2022-12-25T11:34:10.614Z,1.67
2022-12-25T11:36:44.930Z,1.75
2022-12-25T11:38:46.877Z,1.90
2022-12-25T11:40:55.247Z,1.75
2022-12-25T11:43:14.682Z,1.67
2022-12-25T11:45:35.661Z,1.65
2022-12-25T11:47:52.470Z,1.30
2022-12-25T11:50:02.739Z,1.80
2022-12-25T11:52:06.660Z,1.80
2022-12-25T11:54:22.319Z,1.83
2022-12-25T11:56:28.004Z,1.50
2022-12-25T11:58:49.228Z,1.83
2022-12-25T12:00:56.450Z,1.52
2022-12-25T12:03:03.899Z,1.55
2022-12-25T12:05:29.756Z,1.48
2022-12-25T12:07:33.812Z,1.50
2022-12-25T12:10:06.739Z,1.50
2022-12-25T12:12:26.966Z,1.38
2022-12-25T12:14:45.446Z,1.67
2022-12-25T12:16:47.705Z,1.50
2022-12-25T12:18:55.313Z,1.63
2022-12-25T12:21:14.425Z,1.52
2022-12-25T12:23:16.989Z,1.27
2022-12-25T12:25:19.165Z,1.30
2022-12-25T12:27:37.605Z,1.33
2022-12-25T12:29:52.037Z,1.30
2022-12-25T12:31:59.644Z,1.10
2022-12-25T12:34:01.692Z,1.50
2022-12-25T12:36:05.422Z,1.20
2022-12-25T12:38:13.358Z,1.52
2022-12-25T12:40:44.066Z,1.40
2022-12-25T12:42:50.435Z,1.13
2022-12-25T12:44:55.633Z,1.42
2022-12-25T12:46:58.105Z,1.20
2022-12-25T12:49:10.555Z,1.30
2022-12-25T12:51:26.647Z,1.00
2022-12-25T12:53:31.299Z,1.17
2022-12-25T12:55:35.329Z,1.10
2022-12-25T12:57:42.892Z,1.35
2022-12-25T12:59:46.953Z,1.40
2022-12-25T13:02:02.335Z,1.27
2022-12-25T13:04:16.184Z,1.45
2022-12-25T13:06:23.375Z,1.20
2022-12-25T13:08:38.407Z,1.20
2022-12-25T13:10:46.772Z,1.30
2022-12-25T13:12:53.465Z,1.38
2022-12-25T13:14:55.151Z,1.20
2022-12-25T13:16:56.747Z,1.20
2022-12-25T13:19:00.626Z,1.23
2022-12-25T13:21:05.443Z,1.10
2022-12-25T13:23:24.637Z,1.05
2022-12-25T13:25:26.294Z,1.42
2022-12-25T13:27:30.689Z,1.30
2022-12-25T13:29:35.025Z,1.30
2022-12-25T13:31:40.349Z,1.33
2022-12-25T13:33:47.340Z,1.42
2022-12-25T13:35:49.017Z,1.50
2022-12-25T13:37:50.993Z,1.58
2022-12-25T13:39:56.266Z,1.10
2022-12-25T13:42:11.354Z,1.30
2022-12-25T13:44:26.162Z,1.00
2022-12-25T13:46:27.947Z,1.20
2022-12-25T13:48:31.568Z,1.38
2022-12-25T13:50:34.512Z,1.17
2022-12-25T13:52:38.367Z,1.25
2022-12-25T13:54:50.829Z,1.23
2022-12-25T13:56:55.427Z,1.17
2022-12-25T13:59:00.451Z,1.10
2022-12-25T14:01:03.843Z,1.13
2022-12-25T14:03:07.595Z,1.10
2022-12-25T14:05:39.534Z,1.20
2022-12-25T14:07:43.815Z,1.20
2022-12-25T14:09:47.770Z,1.00
2022-12-25T14:11:57.249Z,1.10
2022-12-25T14:14:02.990Z,1.10
2022-12-25T14:16:05.839Z,1.10
2022-12-25T14:18:14.789Z,1.27
2022-12-25T14:20:54.813Z,1.10
2022-12-25T14:22:59.033Z,1.00
2022-12-25T14:25:03.470Z,1.10
2022-12-25T14:27:19.712Z,1.30
2022-12-25T14:29:28.329Z,1.08
2022-12-25T14:31:32.189Z,1.33
2022-12-25T14:33:40.422Z,1.05
2022-12-25T14:35:42.579Z,1.08
2022-12-25T14:37:44.718Z,1.10
2022-12-25T14:40:02.687Z,1.20
2022-12-25T14:42:28.019Z,1.20
2022-12-25T14:44:39.947Z,1.38
2022-12-25T14:46:41.667Z,1.10
2022-12-25T14:48:43.585Z,1.40
2022-12-25T14:50:55.752Z,1.60
2022-12-25T14:52:58.848Z,1.17
2022-12-25T14:55:03.371Z,1.55
2022-12-25T14:57:05.158Z,1.27
2022-12-25T14:59:13.210Z,1.52
2022-12-25T15:01:27.909Z,1.20
2022-12-25T15:03:32.696Z,1.23
2022-12-25T15:05:37.205Z,1.60
2022-12-25T15:07:38.934Z,1.30
2022-12-25T15:09:40.591Z,1.40
2022-12-25T15:11:42.236Z,1.35
2022-12-25T15:13:43.726Z,1.55
2022-12-25T15:16:00.523Z,1.42
2022-12-25T15:18:04.413Z,1.40
2022-12-25T15:20:08.821Z,1.30
2022-12-25T15:22:12.888Z,1.50
2022-12-25T15:24:15.624Z,1.30
2022-12-25T15:26:17.207Z,1.13
2022-12-25T15:28:18.991Z,1.52
2022-12-25T15:30:21.754Z,1.00
2022-12-25T15:32:26.551Z,1.40
2022-12-25T15:34:29.056Z,1.45
2022-12-25T15:36:30.715Z,1.45
2022-12-25T15:38:36.506Z,1.40
2022-12-25T15:40:38.794Z,1.48
2022-12-25T15:42:44.757Z,1.60
2022-12-25T15:44:46.676Z,1.48
2022-12-25T15:46:49.831Z,1.55
2022-12-25T15:48:51.420Z,1.23
2022-12-25T15:50:53.099Z,1.60
2022-12-25T15:52:54.999Z,1.30
2022-12-25T15:54:56.606Z,1.33
2022-12-25T15:57:02.022Z,1.65
2022-12-25T15:59:03.651Z,1.38
2022-12-25T16:01:07.454Z,1.50
2022-12-25T16:03:09.322Z,1.40
2022-12-25T16:05:20.014Z,1.50
2022-12-25T16:07:25.826Z,1.40
2022-12-25T16:09:27.941Z,1.50
2022-12-25T16:11:29.702Z,1.77
2022-12-25T16:13:31.550Z,1.75
2022-12-25T16:15:33.484Z,1.58
2022-12-25T16:17:35.029Z,1.80
2022-12-25T16:19:36.753Z,1.60
2022-12-25T16:21:42.407Z,1.80
2022-12-25T16:23:44.386Z,1.50
2022-12-25T16:25:46.352Z,1.60
2022-12-25T16:27:48.132Z,1.80
2022-12-25T16:29:49.839Z,1.98
2022-12-25T16:31:53.360Z,1.70
2022-12-25T16:33:54.932Z,1.70
2022-12-25T16:36:05.678Z,1.60
2022-12-25T16:38:07.533Z,1.60
2022-12-25T16:40:09.792Z,1.67
2022-12-25T16:42:11.379Z,1.90
2022-12-25T16:44:14.216Z,1.92
2022-12-25T16:46:20.687Z,1.80
2022-12-25T16:48:22.298Z,1.80
2022-12-25T16:50:23.966Z,1.80
2022-12-25T16:52:27.859Z,2.03
2022-12-25T16:54:29.392Z,1.90
2022-12-25T16:56:32.353Z,1.98
2022-12-25T16:58:33.969Z,1.70
2022-12-25T17:00:35.710Z,1.95
2022-12-25T17:02:37.631Z,2.13
2022-12-25T17:04:39.271Z,1.95
2022-12-25T17:06:40.914Z,1.80
2022-12-25T17:08:42.826Z,2.10
2022-12-25T17:10:44.621Z,2.28
2022-12-25T17:12:46.447Z,2.00
2022-12-25T17:14:48.263Z,2.30
2022-12-25T17:16:50.146Z,1.98
2022-12-25T17:18:56.505Z,2.47
2022-12-25T17:20:58.204Z,2.20
2022-12-25T17:22:59.847Z,2.05
2022-12-25T17:25:01.463Z,2.10
2022-12-25T17:27:03.715Z,2.20
2022-12-25T17:29:05.301Z,2.20
2022-12-25T17:31:09.869Z,2.25
2022-12-25T17:33:11.640Z,2.38
2022-12-25T17:35:17.804Z,2.30
2022-12-25T17:37:19.270Z,2.33
2022-12-25T17:39:21.302Z,2.35
2022-12-25T17:41:23.058Z,2.15
2022-12-25T17:43:24.874Z,2.75
2022-12-25T17:45:26.634Z,2.50
2022-12-25T17:47:30.088Z,2.45
2022-12-25T17:49:31.827Z,2.58
2022-12-25T17:51:33.411Z,2.35
2022-12-25T17:53:39.914Z,2.65
2022-12-25T17:55:41.953Z,2.30
2022-12-25T17:57:43.675Z,2.60
2022-12-25T17:59:47.940Z,2.60
2022-12-25T18:01:49.897Z,2.30
2022-12-25T18:03:55.638Z,2.50
2022-12-25T18:06:03.700Z,2.53
2022-12-25T18:08:05.320Z,2.40
2022-12-25T18:10:08.975Z,2.67
2022-12-25T18:12:13.719Z,2.47
2022-12-25T18:14:16.414Z,2.70
2022-12-25T18:16:19.393Z,2.80
2022-12-25T18:18:21.178Z,3.00
2022-12-25T18:20:22.861Z,3.10
2022-12-25T18:22:24.562Z,2.90
2022-12-25T18:24:26.364Z,2.90
2022-12-25T18:26:28.903Z,2.95
2022-12-25T18:28:30.758Z,2.72
2022-12-25T18:30:35.346Z,2.90
2022-12-25T18:32:36.926Z,2.60
2022-12-25T18:34:38.476Z,2.65
2022-12-25T18:36:40.416Z,2.67
2022-12-25T18:38:42.806Z,2.55
2022-12-25T18:40:47.196Z,2.55
2022-12-25T18:42:53.835Z,2.58
2022-12-25T18:44:59.753Z,2.42
2022-12-25T18:47:01.544Z,2.60
2022-12-25T18:49:03.092Z,2.55
2022-12-25T18:51:08.096Z,2.47
2022-12-25T18:53:09.799Z,2.25
2022-12-25T18:55:11.589Z,2.30
2022-12-25T18:57:13.306Z,2.60
2022-12-25T18:59:16.005Z,2.80
2022-12-25T19:01:20.261Z,2.47
2022-12-25T19:03:26.356Z,2.65
2022-12-25T19:05:28.105Z,2.63
2022-12-25T19:07:29.670Z,2.50
2022-12-25T19:09:32.798Z,2.60
2022-12-25T19:11:46.053Z,2.88
2022-12-25T19:13:49.734Z,2.55
2022-12-25T19:15:51.370Z,2.65
2022-12-25T19:17:58.919Z,2.47
2022-12-25T19:20:02.623Z,2.47
2022-12-25T19:22:05.504Z,2.58
2022-12-25T19:24:07.229Z,2.83
2022-12-25T19:26:10.154Z,2.90
2022-12-25T19:28:11.764Z,3.00
2022-12-25T19:30:13.462Z,2.88
2022-12-25T19:32:15.111Z,2.65
2022-12-25T19:34:16.760Z,2.70
2022-12-25T19:36:18.847Z,3.17
2022-12-25T19:38:20.461Z,3.40
2022-12-25T19:40:22.773Z,3.10
2022-12-25T19:42:25.032Z,3.20
2022-12-25T19:44:27.075Z,3.15
2022-12-25T19:46:32.273Z,3.13
2022-12-25T19:48:34.980Z,2.97
2022-12-25T19:50:37.100Z,3.10
2022-12-25T19:52:41.421Z,3.00
2022-12-25T19:54:43.101Z,3.28
2022-12-25T19:56:44.753Z,3.03
2022-12-25T19:58:46.799Z,2.88
2022-12-25T20:01:05.505Z,3.15
2022-12-25T20:03:08.534Z,2.78
2022-12-25T20:05:10.168Z,2.72
2022-12-25T20:07:12.061Z,2.83
2022-12-25T20:09:20.617Z,2.97
2022-12-25T20:11:24.548Z,3.03
2022-12-25T20:13:26.124Z,2.95
2022-12-25T20:15:27.781Z,2.70
2022-12-25T20:17:30.836Z,3.03
2022-12-25T20:19:39.578Z,3.20
2022-12-25T20:21:41.498Z,2.67
2022-12-25T20:23:44.700Z,2.92
2022-12-25T20:25:46.616Z,3.13
2022-12-25T20:27:48.318Z,3.50
2022-12-25T20:29:51.250Z,3.10
2022-12-25T20:31:55.148Z,3.00
2022-12-25T20:34:00.393Z,3.15
2022-12-25T20:36:05.260Z,3.70
2022-12-25T20:38:07.157Z,3.13
2022-12-25T20:40:10.044Z,3.67
2022-12-25T20:42:12.481Z,3.20
2022-12-25T20:44:14.786Z,3.72
2022-12-25T20:46:16.817Z,3.38
2022-12-25T20:48:21.267Z,3.47
2022-12-25T20:50:24.340Z,3.22
2022-12-25T20:52:25.865Z,3.50
2022-12-25T20:54:28.926Z,3.30
2022-12-25T20:56:30.766Z,3.47
2022-12-25T20:58:32.500Z,3.15
2022-12-25T21:00:34.186Z,3.67
2022-12-25T21:02:36.835Z,3.92
2022-12-25T21:04:41.418Z,3.67
2022-12-25T21:06:43.357Z,3.55
2022-12-25T21:08:44.907Z,3.40
2022-12-25T21:10:50.517Z,3.97
2022-12-25T21:12:52.071Z,3.60
2022-12-25T21:14:55.051Z,3.67
2022-12-25T21:16:59.720Z,3.47
2022-12-25T21:19:01.439Z,7.32
2022-12-25T21:21:07.377Z,9.48
2022-12-25T21:23:09.253Z,9.02
2022-12-25T21:25:11.126Z,8.95
2022-12-25T21:27:12.723Z,8.25
2022-12-25T21:29:14.453Z,7.60
2022-12-25T21:31:17.223Z,6.65
2022-12-25T21:33:37.933Z,6.20
2022-12-25T21:35:39.732Z,5.03
2022-12-25T21:37:41.299Z,4.72
2022-12-25T21:39:45.503Z,4.45
2022-12-25T21:41:47.120Z,4.20
2022-12-25T21:43:48.751Z,3.90
2022-12-25T21:45:50.494Z,3.55
2022-12-25T21:48:01.987Z,3.70
2022-12-25T21:50:23.985Z,4.00
2022-12-25T21:52:28.797Z,3.60
2022-12-25T21:54:30.209Z,3.40
2022-12-25T21:56:43.516Z,2.65
2022-12-25T21:58:47.259Z,3.25
2022-12-25T22:00:49.555Z,3.25
2022-12-25T22:02:51.399Z,3.33
2022-12-25T22:04:53.106Z,3.08
2022-12-25T22:07:13.330Z,3.28
2022-12-25T22:09:16.020Z,3.55
2022-12-25T22:11:36.213Z,3.10
2022-12-25T22:13:56.833Z,3.40
2022-12-25T22:16:23.902Z,2.97
2022-12-25T22:18:44.348Z,3.50
2022-12-25T22:20:45.998Z,3.20
2022-12-25T22:22:49.483Z,4.13
2022-12-25T22:24:52.858Z,3.83
2022-12-25T22:26:55.021Z,4.05
2022-12-25T22:28:56.459Z,4.07
2022-12-25T22:30:58.320Z,3.85
2022-12-25T22:33:00.136Z,3.65
2022-12-25T22:35:01.727Z,4.00
2022-12-25T22:37:04.616Z,3.40
2022-12-25T22:39:06.269Z,3.60
2022-12-25T22:41:08.026Z,3.30
2022-12-25T22:43:09.732Z,3.55
2022-12-25T22:45:15.024Z,2.95
2022-12-25T22:47:16.651Z,3.47
2022-12-25T22:49:19.327Z,3.10
2022-12-25T22:51:23.157Z,3.22
2022-12-25T22:53:24.932Z,3.38
2022-12-25T22:55:26.533Z,3.50
2022-12-25T22:57:30.741Z,3.20
2022-12-25T22:59:32.955Z,3.28
2022-12-25T23:01:34.822Z,3.50
2022-12-25T23:03:36.895Z,2.92
2022-12-25T23:05:38.591Z,3.03
2022-12-25T23:07:41.706Z,3.22
2022-12-25T23:09:44.284Z,4.15
2022-12-25T23:11:46.451Z,5.43
2022-12-25T23:14:06.896Z,5.38
2022-12-25T23:16:13.833Z,6.40
2022-12-25T23:18:34.226Z,6.28
2022-12-25T23:20:55.314Z,6.95
2022-12-25T23:23:16.210Z,6.78
2022-12-25T23:25:36.328Z,6.95
2022-12-25T23:27:38.184Z,6.55
2022-12-25T23:29:40.311Z,7.35
2022-12-25T23:31:42.902Z,5.55
2022-12-25T23:33:45.241Z,5.93
2022-12-25T23:35:49.192Z,5.40
2022-12-25T23:37:56.821Z,5.18
2022-12-25T23:40:02.495Z,5.38
2022-12-25T23:42:04.339Z,5.20
2022-12-25T23:44:06.273Z,5.15
2022-12-25T23:46:07.752Z,4.97
2022-12-25T23:48:09.316Z,5.30
2022-12-25T23:50:12.764Z,4.93
2022-12-25T23:52:14.421Z,5.10
2022-12-25T23:54:18.944Z,5.53
2022-12-25T23:56:20.687Z,5.45
2022-12-25T23:58:22.131Z,5.20
